Windom, MN

11:25 AM CDT on October 22, 2017 (GMT -0500)
Windom Municipal

Weather History for KMWM - October, 2014

Change the Weather History Date:

Saturday, October 25, 2014

  Actual Average Record
Temperature  
Mean Temperature 52 °F -  
Max Temperature 64 °F 57 °F 81 °F (1989)
Min Temperature 37 °F 34 °F 18 °F (1957)
Degree Days  
Heating Degree Days 14    
Growing Degree Days 2 (Base 50)    
Moisture  
Dew Point 33 °F    
Average Humidity 46    
Maximum Humidity 75    
Minimum Humidity 24    
Precipitation  
Precipitation 0.00 in - - ()
Sea Level Pressure  
Sea Level Pressure 30.08 in    
Wind  
Wind Speed 8 mph (NW)    
Max Wind Speed 15 mph    
Max Gust Speed 20 mph    
Visibility 10 miles    
Events      
Averages and records for this station are not official NWS values.
T = Trace of Precipitation, MM = Missing Value Source: NWS Daily Summary

Daily Weather History Graph

Daily Weather History Graph

Search for Another Location

Airport or City:

Trip Planner

Search our weather history database for the weather conditions in past years. The results will help you decide how hot, cold, wet, or windy it might be!

Date:

Astronomy

Oct. 25, 2014 Rise Set
Actual Time 7:47 AM CDT 6:20 PM CDT
Civil Twilight 7:18 AM CDT 6:50 PM CDT
Nautical Twilight 6:44 AM CDT 7:23 PM CDT
Astronomical Twilight 6:10 AM CDT 7:57 PM CDT
Moon 9:29 AM CDT (10/25) 7:41 PM CDT (10/25)
Length of Visible Light 11h 32m
Length of Day
10h 33m
Waxing Crescent, 3% of the Moon is Illuminated
Oct 25
Waxing Crescent
Oct 30
First Quarter
Nov 6
Full
Nov 14
Last Quarter
Nov 22
New

Hourly Weather History & Observations

Time (CDT) Temp. Windchill Dew Point Humidity Pressure Visibility Wind Dir Wind Speed Gust Speed Precip Events Conditions
12:13 AM 51.8 °F - 41.0 °F 67% 29.99 in 10.0 mi West 8.1 mph - N/A   Clear
12:33 AM 51.8 °F - 41.0 °F 67% 30.00 in 10.0 mi West 6.9 mph - N/A   Clear
12:54 AM 51.8 °F - 41.0 °F 67% 30.00 in 10.0 mi WNW 8.1 mph - N/A   Clear
1:13 AM 57.2 °F - 41.0 °F 55% 30.00 in 10.0 mi NW 9.2 mph - N/A   Clear
1:33 AM 59.0 °F - 39.2 °F 48% 30.01 in 10.0 mi NW 12.7 mph - N/A   Clear
1:54 AM 57.2 °F - 37.4 °F 48% 30.01 in 10.0 mi NW 10.4 mph - N/A   Clear
2:13 AM 57.2 °F - 37.4 °F 48% 30.02 in 10.0 mi NW 11.5 mph - N/A   Clear
2:33 AM 57.2 °F - 37.4 °F 48% 30.02 in 10.0 mi NW 10.4 mph 17.3 mph N/A   Clear
2:54 AM 57.2 °F - 37.4 °F 48% 30.02 in 10.0 mi NW 11.5 mph - N/A   Clear
3:13 AM 57.2 °F - 37.4 °F 48% 30.03 in 10.0 mi NW 9.2 mph - N/A   Clear
3:33 AM 57.2 °F - 37.4 °F 48% 30.02 in 10.0 mi NW 11.5 mph - N/A   Clear
3:54 AM 57.2 °F - 35.6 °F 44% 30.02 in 10.0 mi NW 12.7 mph - N/A   Clear
4:13 AM 57.2 °F - 35.6 °F 44% 30.03 in 10.0 mi NW 11.5 mph - N/A   Clear
4:33 AM 57.2 °F - 35.6 °F 44% 30.04 in 10.0 mi NW 13.8 mph - N/A   Clear
4:54 AM 55.4 °F - 35.6 °F 47% 30.04 in 10.0 mi NW 15.0 mph - N/A   Clear
5:13 AM 55.4 °F - 35.6 °F 47% 30.05 in 10.0 mi NW 12.7 mph - N/A   Clear
5:34 AM 55.4 °F - 35.6 °F 47% 30.05 in 10.0 mi NW 11.5 mph - N/A   Clear
5:53 AM 53.6 °F - 35.6 °F 51% 30.05 in 10.0 mi NW 8.1 mph - N/A   Clear
6:13 AM 53.6 °F - 35.6 °F 51% 30.06 in 10.0 mi NW 9.2 mph - N/A   Clear
6:34 AM 51.8 °F - 35.6 °F 54% 30.07 in 10.0 mi NW 9.2 mph - N/A   Clear
6:53 AM 51.8 °F - 35.6 °F 54% 30.06 in 10.0 mi NW 6.9 mph - N/A   Clear
7:13 AM 48.2 °F - 35.6 °F 62% 30.08 in 10.0 mi WNW 4.6 mph - N/A   Clear
7:34 AM 48.2 °F - 35.6 °F 62% 30.07 in 10.0 mi Calm Calm - N/A   Clear
7:53 AM 46.4 °F 44.3 °F 33.8 °F 62% 30.08 in 10.0 mi WNW 4.6 mph - N/A   Clear
8:13 AM 44.6 °F 42.2 °F 33.8 °F 66% 30.09 in 10.0 mi WNW 4.6 mph - N/A   Clear
8:34 AM 48.2 °F - 35.6 °F 62% 30.10 in 10.0 mi Calm Calm - N/A   Clear
8:53 AM 51.8 °F - 35.6 °F 54% 30.10 in 10.0 mi WNW 4.6 mph - N/A   Clear
9:13 AM 55.4 °F - 35.6 °F 47% 30.11 in 10.0 mi NW 9.2 mph - N/A   Clear
9:34 AM 55.4 °F - 33.8 °F 44% 30.11 in 10.0 mi NW 15.0 mph - N/A   Clear
9:53 AM 57.2 °F - 33.8 °F 41% 30.12 in 10.0 mi NNW 11.5 mph 18.4 mph N/A   Clear
10:14 AM 57.2 °F - 33.8 °F 41% 30.12 in 10.0 mi NNW 13.8 mph - N/A   Clear
10:33 AM 59.0 °F - 33.8 °F 39% 30.13 in 10.0 mi NNW 10.4 mph - N/A   Clear
10:54 AM 59.0 °F - 33.8 °F 39% 30.13 in 10.0 mi NW 12.7 mph - N/A   Clear
11:14 AM 60.8 °F - 32.0 °F 34% 30.13 in 10.0 mi NW 11.5 mph - N/A   Clear
11:33 AM 60.8 °F - 32.0 °F 34% 30.13 in 10.0 mi NNW 13.8 mph - N/A   Clear
11:54 AM 62.6 °F - 30.2 °F 30% 30.13 in 10.0 mi NNW 13.8 mph 19.6 mph N/A   Clear
12:14 PM 62.6 °F - 30.2 °F 30% 30.13 in 10.0 mi NW 11.5 mph - N/A   Clear
12:33 PM 62.6 °F - 30.2 °F 30% 30.13 in 10.0 mi NNW 12.7 mph - N/A   Clear
12:54 PM 62.6 °F - 28.4 °F 27% 30.13 in 10.0 mi NW 13.8 mph 17.3 mph N/A   Clear
1:14 PM 64.4 °F - 30.2 °F 28% 30.12 in 10.0 mi NW 12.7 mph - N/A   Clear
1:33 PM 64.4 °F - 28.4 °F 26% 30.12 in 10.0 mi NNW 12.7 mph - N/A   Clear
1:53 PM 64.4 °F - 28.4 °F 26% 30.12 in 10.0 mi NW 10.4 mph 18.4 mph N/A   Clear
2:14 PM 64.4 °F - 28.4 °F 26% 30.11 in 10.0 mi NW 11.5 mph 16.1 mph N/A   Clear
2:33 PM 64.4 °F - 28.4 °F 26% 30.11 in 10.0 mi NW 9.2 mph 16.1 mph N/A   Clear
2:53 PM 64.4 °F - 26.6 °F 24% 30.11 in 10.0 mi WNW 9.2 mph - N/A   Clear
3:13 PM 64.4 °F - 26.6 °F 24% 30.10 in 10.0 mi WNW 11.5 mph 16.1 mph N/A   Clear
3:33 PM 64.4 °F - 26.6 °F 24% 30.10 in 10.0 mi NNW 10.4 mph 16.1 mph N/A   Clear
3:53 PM 64.4 °F - 26.6 °F 24% 30.10 in 10.0 mi NW 8.1 mph - N/A   Clear
4:13 PM 64.4 °F - 26.6 °F 24% 30.10 in 10.0 mi NW 11.5 mph 17.3 mph N/A   Clear
4:34 PM 64.4 °F - 26.6 °F 24% 30.10 in 10.0 mi NW 11.5 mph - N/A   Clear
4:53 PM 64.4 °F - 28.4 °F 26% 30.10 in 10.0 mi NW 9.2 mph - N/A   Clear
5:13 PM 62.6 °F - 28.4 °F 27% 30.10 in 10.0 mi NNW 6.9 mph - N/A   Clear
5:34 PM 60.8 °F - 28.4 °F 29% 30.10 in 10.0 mi NNW 6.9 mph - N/A   Clear
5:53 PM 59.0 °F - 30.2 °F 34% 30.10 in 10.0 mi Calm Calm - N/A   Clear
6:13 PM 55.4 °F - 30.2 °F 38% 30.09 in 10.0 mi NNW 5.8 mph - N/A   Clear
6:34 PM 51.8 °F - 30.2 °F 44% 30.09 in 10.0 mi NNW 6.9 mph - N/A   Clear
6:53 PM 51.8 °F - 30.2 °F 44% 30.09 in 10.0 mi NNW 4.6 mph - N/A   Clear
7:13 PM 48.2 °F - 30.2 °F 50% 30.09 in 10.0 mi Calm Calm - N/A   Clear
7:34 PM 46.4 °F 45.2 °F 30.2 °F 53% 30.09 in 7.0 mi NNW 3.5 mph - N/A   Clear
7:53 PM 44.6 °F - 30.2 °F 57% 30.09 in 10.0 mi Calm Calm - N/A   Clear
8:13 PM 48.2 °F - 28.4 °F 46% 30.09 in 7.0 mi Calm Calm - N/A   Clear
8:34 PM 46.4 °F - 28.4 °F 50% 30.08 in 10.0 mi Calm Calm - N/A   Clear
8:53 PM 44.6 °F - 33.8 °F 66% 30.08 in 7.0 mi Calm Calm - N/A   Clear
9:13 PM 46.4 °F - 30.2 °F 53% 30.07 in 7.0 mi Calm Calm - N/A   Clear
9:34 PM 41.0 °F - 30.2 °F 65% 30.07 in 7.0 mi Calm Calm - N/A   Clear
9:53 PM 42.8 °F - 30.2 °F 61% 30.08 in 10.0 mi Calm Calm - N/A   Clear
10:14 PM 44.6 °F - 30.2 °F 57% 30.08 in 10.0 mi Calm Calm - N/A   Clear
10:34 PM 39.2 °F - 28.4 °F 65% 30.08 in 10.0 mi Calm Calm - N/A   Clear
10:53 PM 39.2 °F - 28.4 °F 65% 30.07 in 10.0 mi Calm Calm - N/A   Clear
11:14 PM 39.2 °F - 32.0 °F 75% 30.08 in 10.0 mi Calm Calm - N/A   Clear
11:34 PM 39.2 °F - 30.2 °F 70% 30.06 in 10.0 mi Calm Calm - N/A   Clear
11:53 PM 37.4 °F - 30.2 °F 75% 30.05 in 10.0 mi Calm Calm - N/A   Clear